sensor_id;sensor_type;location;lat;lon;timestamp;P1;durP1;ratioP1;P2;durP2;ratioP2
12966;SDS011;6548;49.996;8.238;2023-11-19T00:00:30;2.53;;;1.25;;
12966;SDS011;6548;49.996;8.238;2023-11-19T00:02:55;1.33;;;1.20;;
12966;SDS011;6548;49.996;8.238;2023-11-19T00:05:21;1.73;;;1.30;;
12966;SDS011;6548;49.996;8.238;2023-11-19T00:07:46;1.40;;;1.05;;
12966;SDS011;6548;49.996;8.238;2023-11-19T00:10:13;1.40;;;1.30;;
12966;SDS011;6548;49.996;8.238;2023-11-19T00:12:44;1.10;;;0.90;;
12966;SDS011;6548;49.996;8.238;2023-11-19T00:15:11;2.15;;;1.35;;
12966;SDS011;6548;49.996;8.238;2023-11-19T00:17:41;2.40;;;1.15;;
12966;SDS011;6548;49.996;8.238;2023-11-19T00:20:11;2.90;;;1.00;;
12966;SDS011;6548;49.996;8.238;2023-11-19T00:22:41;1.88;;;0.95;;
12966;SDS011;6548;49.996;8.238;2023-11-19T00:25:07;2.15;;;1.10;;
12966;SDS011;6548;49.996;8.238;2023-11-19T00:27:33;3.22;;;1.20;;
12966;SDS011;6548;49.996;8.238;2023-11-19T00:29:59;4.18;;;1.08;;
12966;SDS011;6548;49.996;8.238;2023-11-19T00:32:25;1.52;;;1.30;;
12966;SDS011;6548;49.996;8.238;2023-11-19T00:34:50;1.58;;;1.20;;
12966;SDS011;6548;49.996;8.238;2023-11-19T00:37:16;3.58;;;1.23;;
12966;SDS011;6548;49.996;8.238;2023-11-19T00:39:42;2.13;;;1.20;;
12966;SDS011;6548;49.996;8.238;2023-11-19T00:42:11;2.88;;;1.20;;
12966;SDS011;6548;49.996;8.238;2023-11-19T00:44:36;2.47;;;1.15;;
12966;SDS011;6548;49.996;8.238;2023-11-19T00:47:02;1.17;;;1.05;;
12966;SDS011;6548;49.996;8.238;2023-11-19T00:49:28;1.73;;;1.17;;
12966;SDS011;6548;49.996;8.238;2023-11-19T00:51:53;2.13;;;1.50;;
12966;SDS011;6548;49.996;8.238;2023-11-19T00:54:19;1.52;;;1.08;;
12966;SDS011;6548;49.996;8.238;2023-11-19T00:56:44;1.75;;;0.98;;
12966;SDS011;6548;49.996;8.238;2023-11-19T00:59:10;1.58;;;0.98;;
12966;SDS011;6548;49.996;8.238;2023-11-19T01:01:36;2.15;;;1.00;;
12966;SDS011;6548;49.996;8.238;2023-11-19T01:04:01;1.80;;;0.80;;
12966;SDS011;6548;49.996;8.238;2023-11-19T01:06:27;1.88;;;1.35;;
12966;SDS011;6548;49.996;8.238;2023-11-19T01:08:53;1.80;;;1.27;;
12966;SDS011;6548;49.996;8.238;2023-11-19T01:11:20;3.55;;;1.63;;
12966;SDS011;6548;49.996;8.238;2023-11-19T01:13:46;1.80;;;1.30;;
12966;SDS011;6548;49.996;8.238;2023-11-19T01:16:12;1.80;;;1.38;;
12966;SDS011;6548;49.996;8.238;2023-11-19T01:18:38;1.73;;;1.40;;
12966;SDS011;6548;49.996;8.238;2023-11-19T01:21:04;1.77;;;1.00;;
12966;SDS011;6548;49.996;8.238;2023-11-19T01:23:30;3.03;;;1.30;;
12966;SDS011;6548;49.996;8.238;2023-11-19T01:25:55;1.65;;;1.00;;
12966;SDS011;6548;49.996;8.238;2023-11-19T01:28:21;1.20;;;1.00;;
12966;SDS011;6548;49.996;8.238;2023-11-19T01:30:46;1.17;;;0.93;;
12966;SDS011;6548;49.996;8.238;2023-11-19T01:33:15;1.55;;;1.13;;
12966;SDS011;6548;49.996;8.238;2023-11-19T01:35:40;1.63;;;1.38;;
12966;SDS011;6548;49.996;8.238;2023-11-19T01:38:06;2.53;;;1.00;;
12966;SDS011;6548;49.996;8.238;2023-11-19T01:40:33;2.17;;;1.10;;
12966;SDS011;6548;49.996;8.238;2023-11-19T01:42:59;1.50;;;0.80;;
12966;SDS011;6548;49.996;8.238;2023-11-19T01:45:28;1.15;;;0.80;;
12966;SDS011;6548;49.996;8.238;2023-11-19T01:47:55;0.70;;;0.70;;
12966;SDS011;6548;49.996;8.238;2023-11-19T01:50:22;1.38;;;0.80;;
12966;SDS011;6548;49.996;8.238;2023-11-19T01:52:49;1.30;;;0.50;;
12966;SDS011;6548;49.996;8.238;2023-11-19T01:55:19;0.63;;;0.43;;
12966;SDS011;6548;49.996;8.238;2023-11-19T01:57:46;0.65;;;0.50;;
12966;SDS011;6548;49.996;8.238;2023-11-19T02:00:12;0.85;;;0.40;;
12966;SDS011;6548;49.996;8.238;2023-11-19T02:02:39;0.68;;;0.40;;
12966;SDS011;6548;49.996;8.238;2023-11-19T02:05:05;0.57;;;0.45;;
12966;SDS011;6548;49.996;8.238;2023-11-19T02:07:31;0.43;;;0.43;;
12966;SDS011;6548;49.996;8.238;2023-11-19T02:09:57;0.50;;;0.50;;
12966;SDS011;6548;49.996;8.238;2023-11-19T02:12:25;0.73;;;0.40;;
12966;SDS011;6548;49.996;8.238;2023-11-19T02:14:53;0.40;;;0.30;;
12966;SDS011;6548;49.996;8.238;2023-11-19T02:17:26;0.70;;;0.60;;
12966;SDS011;6548;49.996;8.238;2023-11-19T02:19:59;1.00;;;0.55;;
12966;SDS011;6548;49.996;8.238;2023-11-19T02:22:25;0.50;;;0.50;;
12966;SDS011;6548;49.996;8.238;2023-11-19T02:24:51;0.70;;;0.38;;
12966;SDS011;6548;49.996;8.238;2023-11-19T02:30:16;0.88;;;0.57;;
12966;SDS011;6548;49.996;8.238;2023-11-19T02:32:42;1.23;;;0.32;;
12966;SDS011;6548;49.996;8.238;2023-11-19T02:35:07;0.40;;;0.40;;
12966;SDS011;6548;49.996;8.238;2023-11-19T02:37:37;0.55;;;0.43;;
12966;SDS011;6548;49.996;8.238;2023-11-19T02:40:04;0.60;;;0.60;;
12966;SDS011;6548;49.996;8.238;2023-11-19T02:42:30;0.57;;;0.40;;
12966;SDS011;6548;49.996;8.238;2023-11-19T02:44:56;0.75;;;0.28;;
12966;SDS011;6548;49.996;8.238;2023-11-19T02:47:21;0.50;;;0.30;;
12966;SDS011;6548;49.996;8.238;2023-11-19T02:49:49;0.40;;;0.35;;
12966;SDS011;6548;49.996;8.238;2023-11-19T02:52:14;0.47;;;0.30;;
12966;SDS011;6548;49.996;8.238;2023-11-19T02:54:40;1.40;;;0.50;;
12966;SDS011;6548;49.996;8.238;2023-11-19T02:57:07;0.20;;;0.15;;
12966;SDS011;6548;49.996;8.238;2023-11-19T02:59:35;1.48;;;0.50;;
12966;SDS011;6548;49.996;8.238;2023-11-19T03:02:06;0.30;;;0.20;;
12966;SDS011;6548;49.996;8.238;2023-11-19T03:04:32;0.15;;;0.15;;
12966;SDS011;6548;49.996;8.238;2023-11-19T03:06:58;0.20;;;0.20;;
12966;SDS011;6548;49.996;8.238;2023-11-19T03:09:24;0.35;;;0.30;;
12966;SDS011;6548;49.996;8.238;2023-11-19T03:11:50;0.55;;;0.40;;
12966;SDS011;6548;49.996;8.238;2023-11-19T03:14:15;0.50;;;0.35;;
12966;SDS011;6548;49.996;8.238;2023-11-19T03:16:44;0.47;;;0.32;;
12966;SDS011;6548;49.996;8.238;2023-11-19T03:19:11;0.30;;;0.30;;
12966;SDS011;6548;49.996;8.238;2023-11-19T03:21:36;1.40;;;0.50;;
12966;SDS011;6548;49.996;8.238;2023-11-19T03:24:02;0.50;;;0.30;;
12966;SDS011;6548;49.996;8.238;2023-11-19T03:26:28;0.30;;;0.28;;
12966;SDS011;6548;49.996;8.238;2023-11-19T03:28:54;2.13;;;1.00;;
12966;SDS011;6548;49.996;8.238;2023-11-19T03:31:21;0.88;;;0.60;;
12966;SDS011;6548;49.996;8.238;2023-11-19T03:33:47;0.40;;;0.30;;
12966;SDS011;6548;49.996;8.238;2023-11-19T03:36:13;3.67;;;0.40;;
12966;SDS011;6548;49.996;8.238;2023-11-19T03:38:38;0.70;;;0.25;;
12966;SDS011;6548;49.996;8.238;2023-11-19T03:41:11;0.40;;;0.30;;
12966;SDS011;6548;49.996;8.238;2023-11-19T03:43:37;0.77;;;0.20;;
12966;SDS011;6548;49.996;8.238;2023-11-19T03:46:03;0.75;;;0.47;;
12966;SDS011;6548;49.996;8.238;2023-11-19T03:48:30;0.70;;;0.43;;
12966;SDS011;6548;49.996;8.238;2023-11-19T03:50:56;0.47;;;0.47;;
12966;SDS011;6548;49.996;8.238;2023-11-19T03:53:21;0.63;;;0.30;;
12966;SDS011;6548;49.996;8.238;2023-11-19T03:55:49;0.30;;;0.30;;
12966;SDS011;6548;49.996;8.238;2023-11-19T03:58:15;1.42;;;0.50;;
12966;SDS011;6548;49.996;8.238;2023-11-19T04:00:40;0.65;;;0.60;;
12966;SDS011;6548;49.996;8.238;2023-11-19T04:03:06;1.23;;;0.50;;
12966;SDS011;6548;49.996;8.238;2023-11-19T04:05:31;1.17;;;0.73;;
12966;SDS011;6548;49.996;8.238;2023-11-19T04:07:57;2.92;;;1.17;;
12966;SDS011;6548;49.996;8.238;2023-11-19T04:10:22;0.95;;;0.63;;
12966;SDS011;6548;49.996;8.238;2023-11-19T04:12:48;1.48;;;0.73;;
12966;SDS011;6548;49.996;8.238;2023-11-19T04:15:14;1.63;;;0.90;;
12966;SDS011;6548;49.996;8.238;2023-11-19T04:17:39;2.38;;;0.63;;
12966;SDS011;6548;49.996;8.238;2023-11-19T04:20:05;0.88;;;0.60;;
12966;SDS011;6548;49.996;8.238;2023-11-19T04:22:35;2.17;;;0.60;;
12966;SDS011;6548;49.996;8.238;2023-11-19T04:25:01;1.25;;;0.68;;
12966;SDS011;6548;49.996;8.238;2023-11-19T04:27:26;1.50;;;0.77;;
12966;SDS011;6548;49.996;8.238;2023-11-19T04:29:52;2.33;;;1.23;;
12966;SDS011;6548;49.996;8.238;2023-11-19T04:32:17;1.35;;;0.60;;
12966;SDS011;6548;49.996;8.238;2023-11-19T04:34:43;1.27;;;0.70;;
12966;SDS011;6548;49.996;8.238;2023-11-19T04:37:09;11.73;;;0.90;;
12966;SDS011;6548;49.996;8.238;2023-11-19T04:39:34;0.73;;;0.60;;
12966;SDS011;6548;49.996;8.238;2023-11-19T04:42:00;1.13;;;0.70;;
12966;SDS011;6548;49.996;8.238;2023-11-19T04:44:25;1.27;;;1.17;;
12966;SDS011;6548;49.996;8.238;2023-11-19T04:46:51;3.00;;;0.75;;
12966;SDS011;6548;49.996;8.238;2023-11-19T04:49:16;3.90;;;0.65;;
12966;SDS011;6548;49.996;8.238;2023-11-19T04:51:44;1.25;;;1.08;;
12966;SDS011;6548;49.996;8.238;2023-11-19T04:54:12;1.20;;;0.70;;
12966;SDS011;6548;49.996;8.238;2023-11-19T04:56:37;0.77;;;0.70;;
12966;SDS011;6548;49.996;8.238;2023-11-19T04:59:03;1.08;;;0.80;;
12966;SDS011;6548;49.996;8.238;2023-11-19T05:01:30;1.00;;;0.88;;
12966;SDS011;6548;49.996;8.238;2023-11-19T05:03:56;1.83;;;1.10;;
12966;SDS011;6548;49.996;8.238;2023-11-19T05:06:25;2.03;;;1.10;;
12966;SDS011;6548;49.996;8.238;2023-11-19T05:08:54;1.67;;;1.33;;
12966;SDS011;6548;49.996;8.238;2023-11-19T05:11:21;1.05;;;0.90;;
12966;SDS011;6548;49.996;8.238;2023-11-19T05:13:47;1.70;;;1.20;;
12966;SDS011;6548;49.996;8.238;2023-11-19T05:16:12;2.17;;;1.00;;
12966;SDS011;6548;49.996;8.238;2023-11-19T05:18:41;2.03;;;1.10;;
12966;SDS011;6548;49.996;8.238;2023-11-19T05:21:07;2.10;;;1.00;;
12966;SDS011;6548;49.996;8.238;2023-11-19T05:23:33;2.28;;;1.35;;
12966;SDS011;6548;49.996;8.238;2023-11-19T05:25:59;3.00;;;1.52;;
12966;SDS011;6548;49.996;8.238;2023-11-19T05:28:25;2.72;;;1.90;;
12966;SDS011;6548;49.996;8.238;2023-11-19T05:30:51;5.00;;;2.88;;
12966;SDS011;6548;49.996;8.238;2023-11-19T05:33:16;6.10;;;3.00;;
12966;SDS011;6548;49.996;8.238;2023-11-19T05:35:42;4.10;;;3.25;;
12966;SDS011;6548;49.996;8.238;2023-11-19T05:38:07;5.78;;;3.15;;
12966;SDS011;6548;49.996;8.238;2023-11-19T05:40:34;5.57;;;3.40;;
12966;SDS011;6548;49.996;8.238;2023-11-19T05:43:00;5.88;;;3.78;;
12966;SDS011;6548;49.996;8.238;2023-11-19T05:45:26;5.38;;;3.17;;
12966;SDS011;6548;49.996;8.238;2023-11-19T05:47:51;4.90;;;3.08;;
12966;SDS011;6548;49.996;8.238;2023-11-19T05:50:17;3.88;;;2.75;;
12966;SDS011;6548;49.996;8.238;2023-11-19T05:52:43;4.28;;;2.83;;
12966;SDS011;6548;49.996;8.238;2023-11-19T05:55:09;3.60;;;3.10;;
12966;SDS011;6548;49.996;8.238;2023-11-19T05:57:35;3.45;;;2.72;;
12966;SDS011;6548;49.996;8.238;2023-11-19T06:00:02;4.85;;;3.15;;
12966;SDS011;6548;49.996;8.238;2023-11-19T06:02:31;8.80;;;3.67;;
12966;SDS011;6548;49.996;8.238;2023-11-19T06:04:57;5.83;;;3.13;;
12966;SDS011;6548;49.996;8.238;2023-11-19T06:07:23;5.07;;;2.92;;
12966;SDS011;6548;49.996;8.238;2023-11-19T06:09:48;5.72;;;3.97;;
12966;SDS011;6548;49.996;8.238;2023-11-19T06:12:14;7.75;;;4.03;;
12966;SDS011;6548;49.996;8.238;2023-11-19T06:14:40;5.40;;;3.75;;
12966;SDS011;6548;49.996;8.238;2023-11-19T06:17:06;6.40;;;3.80;;
12966;SDS011;6548;49.996;8.238;2023-11-19T06:19:31;5.60;;;3.40;;
12966;SDS011;6548;49.996;8.238;2023-11-19T06:21:58;6.57;;;3.88;;
12966;SDS011;6548;49.996;8.238;2023-11-19T06:24:23;6.70;;;4.07;;
12966;SDS011;6548;49.996;8.238;2023-11-19T06:26:49;6.50;;;4.28;;
12966;SDS011;6548;49.996;8.238;2023-11-19T06:29:14;7.80;;;4.47;;
12966;SDS011;6548;49.996;8.238;2023-11-19T06:31:43;7.38;;;4.25;;
12966;SDS011;6548;49.996;8.238;2023-11-19T06:34:09;10.70;;;4.55;;
12966;SDS011;6548;49.996;8.238;2023-11-19T06:36:34;8.52;;;4.53;;
12966;SDS011;6548;49.996;8.238;2023-11-19T06:39:00;7.78;;;4.40;;
12966;SDS011;6548;49.996;8.238;2023-11-19T06:41:26;8.50;;;4.80;;
12966;SDS011;6548;49.996;8.238;2023-11-19T06:43:53;7.45;;;4.80;;
12966;SDS011;6548;49.996;8.238;2023-11-19T06:46:19;9.07;;;4.82;;
12966;SDS011;6548;49.996;8.238;2023-11-19T06:48:45;6.68;;;4.80;;
12966;SDS011;6548;49.996;8.238;2023-11-19T06:51:11;7.20;;;4.90;;
12966;SDS011;6548;49.996;8.238;2023-11-19T06:53:37;8.65;;;5.43;;
12966;SDS011;6548;49.996;8.238;2023-11-19T06:56:04;7.50;;;4.85;;
12966;SDS011;6548;49.996;8.238;2023-11-19T06:58:41;7.50;;;4.40;;
12966;SDS011;6548;49.996;8.238;2023-11-19T07:01:07;7.72;;;5.05;;
12966;SDS011;6548;49.996;8.238;2023-11-19T07:03:34;9.60;;;5.10;;
12966;SDS011;6548;49.996;8.238;2023-11-19T07:06:00;9.73;;;5.20;;
12966;SDS011;6548;49.996;8.238;2023-11-19T07:08:25;11.13;;;5.57;;
12966;SDS011;6548;49.996;8.238;2023-11-19T07:10:51;8.85;;;4.97;;
12966;SDS011;6548;49.996;8.238;2023-11-19T07:13:17;10.27;;;5.82;;
12966;SDS011;6548;49.996;8.238;2023-11-19T07:15:44;12.10;;;5.93;;
12966;SDS011;6548;49.996;8.238;2023-11-19T07:18:10;9.63;;;5.43;;
12966;SDS011;6548;49.996;8.238;2023-11-19T07:20:36;10.15;;;6.20;;
12966;SDS011;6548;49.996;8.238;2023-11-19T07:23:03;9.80;;;5.82;;
12966;SDS011;6548;49.996;8.238;2023-11-19T07:25:29;10.65;;;6.50;;
12966;SDS011;6548;49.996;8.238;2023-11-19T07:27:54;9.77;;;5.78;;
12966;SDS011;6548;49.996;8.238;2023-11-19T07:30:21;10.18;;;6.30;;
12966;SDS011;6548;49.996;8.238;2023-11-19T07:32:47;15.20;;;8.00;;
12966;SDS011;6548;49.996;8.238;2023-11-19T07:35:13;10.27;;;6.13;;
12966;SDS011;6548;49.996;8.238;2023-11-19T07:37:40;9.98;;;5.97;;
12966;SDS011;6548;49.996;8.238;2023-11-19T07:40:07;9.93;;;5.55;;
12966;SDS011;6548;49.996;8.238;2023-11-19T07:42:33;12.82;;;6.68;;
12966;SDS011;6548;49.996;8.238;2023-11-19T07:44:58;10.80;;;5.93;;
12966;SDS011;6548;49.996;8.238;2023-11-19T07:47:24;13.50;;;6.25;;
12966;SDS011;6548;49.996;8.238;2023-11-19T07:49:50;12.25;;;7.68;;
12966;SDS011;6548;49.996;8.238;2023-11-19T07:52:16;12.70;;;7.35;;
12966;SDS011;6548;49.996;8.238;2023-11-19T07:54:41;12.57;;;6.95;;
12966;SDS011;6548;49.996;8.238;2023-11-19T07:57:07;11.70;;;6.75;;
12966;SDS011;6548;49.996;8.238;2023-11-19T07:59:33;11.07;;;6.80;;
12966;SDS011;6548;49.996;8.238;2023-11-19T08:01:58;11.23;;;7.07;;
12966;SDS011;6548;49.996;8.238;2023-11-19T08:04:24;11.35;;;6.43;;
12966;SDS011;6548;49.996;8.238;2023-11-19T08:06:50;12.13;;;6.65;;
12966;SDS011;6548;49.996;8.238;2023-11-19T08:09:16;10.25;;;6.03;;
12966;SDS011;6548;49.996;8.238;2023-11-19T08:11:42;11.85;;;6.10;;
12966;SDS011;6548;49.996;8.238;2023-11-19T08:14:08;11.75;;;6.03;;
12966;SDS011;6548;49.996;8.238;2023-11-19T08:16:33;9.20;;;5.93;;
12966;SDS011;6548;49.996;8.238;2023-11-19T08:18:59;9.45;;;5.85;;
12966;SDS011;6548;49.996;8.238;2023-11-19T08:21:25;9.23;;;5.45;;
12966;SDS011;6548;49.996;8.238;2023-11-19T08:23:52;8.73;;;5.40;;
12966;SDS011;6548;49.996;8.238;2023-11-19T08:26:17;16.88;;;9.80;;
12966;SDS011;6548;49.996;8.238;2023-11-19T08:28:46;8.75;;;5.45;;
12966;SDS011;6548;49.996;8.238;2023-11-19T08:31:12;9.90;;;6.63;;
12966;SDS011;6548;49.996;8.238;2023-11-19T08:33:38;9.07;;;5.30;;
12966;SDS011;6548;49.996;8.238;2023-11-19T08:36:03;9.05;;;5.18;;
12966;SDS011;6548;49.996;8.238;2023-11-19T08:38:29;10.07;;;6.30;;
12966;SDS011;6548;49.996;8.238;2023-11-19T08:40:56;9.18;;;6.05;;
12966;SDS011;6548;49.996;8.238;2023-11-19T08:43:27;8.23;;;5.35;;
12966;SDS011;6548;49.996;8.238;2023-11-19T08:45:53;10.82;;;6.15;;
12966;SDS011;6548;49.996;8.238;2023-11-19T08:48:18;11.38;;;6.50;;
12966;SDS011;6548;49.996;8.238;2023-11-19T08:50:46;10.07;;;5.68;;
12966;SDS011;6548;49.996;8.238;2023-11-19T08:53:12;10.90;;;6.15;;
12966;SDS011;6548;49.996;8.238;2023-11-19T08:55:38;11.93;;;7.18;;
12966;SDS011;6548;49.996;8.238;2023-11-19T08:58:03;13.60;;;8.10;;
12966;SDS011;6548;49.996;8.238;2023-11-19T09:00:29;16.63;;;8.85;;
12966;SDS011;6548;49.996;8.238;2023-11-19T09:02:57;9.88;;;6.18;;
12966;SDS011;6548;49.996;8.238;2023-11-19T09:05:23;10.05;;;5.60;;
12966;SDS011;6548;49.996;8.238;2023-11-19T09:07:48;6.05;;;2.15;;
12966;SDS011;6548;49.996;8.238;2023-11-19T09:10:14;2.90;;;1.40;;
12966;SDS011;6548;49.996;8.238;2023-11-19T09:12:41;4.95;;;1.23;;
12966;SDS011;6548;49.996;8.238;2023-11-19T09:15:09;5.70;;;1.23;;
12966;SDS011;6548;49.996;8.238;2023-11-19T09:17:38;9.70;;;2.47;;
12966;SDS011;6548;49.996;8.238;2023-11-19T09:20:04;3.45;;;0.93;;
12966;SDS011;6548;49.996;8.238;2023-11-19T09:22:30;3.88;;;1.60;;
12966;SDS011;6548;49.996;8.238;2023-11-19T09:24:56;7.15;;;1.55;;
12966;SDS011;6548;49.996;8.238;2023-11-19T09:27:24;3.63;;;1.20;;
12966;SDS011;6548;49.996;8.238;2023-11-19T09:29:51;6.32;;;1.80;;
12966;SDS011;6548;49.996;8.238;2023-11-19T09:32:22;4.75;;;1.83;;
12966;SDS011;6548;49.996;8.238;2023-11-19T09:34:48;5.75;;;1.35;;
12966;SDS011;6548;49.996;8.238;2023-11-19T09:37:13;6.65;;;1.30;;
12966;SDS011;6548;49.996;8.238;2023-11-19T09:39:41;7.45;;;2.30;;
12966;SDS011;6548;49.996;8.238;2023-11-19T09:42:10;3.38;;;0.98;;
12966;SDS011;6548;49.996;8.238;2023-11-19T09:44:37;6.28;;;1.50;;
12966;SDS011;6548;49.996;8.238;2023-11-19T09:47:06;7.07;;;1.50;;
12966;SDS011;6548;49.996;8.238;2023-11-19T09:49:36;10.10;;;1.42;;
12966;SDS011;6548;49.996;8.238;2023-11-19T09:52:02;5.85;;;1.90;;
12966;SDS011;6548;49.996;8.238;2023-11-19T09:54:28;4.57;;;1.23;;
12966;SDS011;6548;49.996;8.238;2023-11-19T09:56:54;5.57;;;1.27;;
12966;SDS011;6548;49.996;8.238;2023-11-19T09:59:27;5.97;;;1.55;;
12966;SDS011;6548;49.996;8.238;2023-11-19T10:01:54;4.30;;;1.48;;
12966;SDS011;6548;49.996;8.238;2023-11-19T10:04:21;6.72;;;1.50;;
12966;SDS011;6548;49.996;8.238;2023-11-19T10:06:49;5.65;;;1.73;;
12966;SDS011;6548;49.996;8.238;2023-11-19T10:09:18;9.15;;;1.92;;
12966;SDS011;6548;49.996;8.238;2023-11-19T10:11:47;7.20;;;1.80;;
12966;SDS011;6548;49.996;8.238;2023-11-19T10:14:14;6.03;;;1.52;;
12966;SDS011;6548;49.996;8.238;2023-11-19T10:16:40;7.70;;;1.30;;
12966;SDS011;6548;49.996;8.238;2023-11-19T10:19:06;7.50;;;2.63;;
12966;SDS011;6548;49.996;8.238;2023-11-19T10:21:32;8.40;;;2.13;;
12966;SDS011;6548;49.996;8.238;2023-11-19T10:24:04;6.57;;;1.58;;
12966;SDS011;6548;49.996;8.238;2023-11-19T10:26:30;6.68;;;2.17;;
12966;SDS011;6548;49.996;8.238;2023-11-19T10:28:59;3.92;;;1.55;;
12966;SDS011;6548;49.996;8.238;2023-11-19T10:31:26;5.22;;;1.38;;
12966;SDS011;6548;49.996;8.238;2023-11-19T10:33:54;6.30;;;1.85;;
12966;SDS011;6548;49.996;8.238;2023-11-19T10:36:20;5.47;;;1.10;;
12966;SDS011;6548;49.996;8.238;2023-11-19T10:38:56;2.83;;;1.23;;
12966;SDS011;6548;49.996;8.238;2023-11-19T10:41:28;3.97;;;1.20;;
12966;SDS011;6548;49.996;8.238;2023-11-19T10:43:55;5.55;;;1.50;;
12966;SDS011;6548;49.996;8.238;2023-11-19T10:46:21;6.35;;;1.60;;
12966;SDS011;6548;49.996;8.238;2023-11-19T10:48:48;7.70;;;2.63;;
12966;SDS011;6548;49.996;8.238;2023-11-19T10:51:18;4.50;;;1.92;;
12966;SDS011;6548;49.996;8.238;2023-11-19T10:53:49;6.72;;;2.05;;
12966;SDS011;6548;49.996;8.238;2023-11-19T10:56:16;6.85;;;1.30;;
12966;SDS011;6548;49.996;8.238;2023-11-19T10:58:44;8.75;;;1.75;;
12966;SDS011;6548;49.996;8.238;2023-11-19T11:01:18;9.27;;;2.28;;
12966;SDS011;6548;49.996;8.238;2023-11-19T11:03:47;7.90;;;2.08;;
12966;SDS011;6548;49.996;8.238;2023-11-19T11:06:17;6.78;;;1.55;;
12966;SDS011;6548;49.996;8.238;2023-11-19T11:08:44;6.78;;;1.52;;
12966;SDS011;6548;49.996;8.238;2023-11-19T11:11:13;9.75;;;1.60;;
12966;SDS011;6548;49.996;8.238;2023-11-19T11:13:49;2.03;;;1.00;;
12966;SDS011;6548;49.996;8.238;2023-11-19T11:16:18;8.32;;;2.35;;
12966;SDS011;6548;49.996;8.238;2023-11-19T11:18:45;5.93;;;1.52;;
12966;SDS011;6548;49.996;8.238;2023-11-19T11:21:15;7.05;;;1.27;;
12966;SDS011;6548;49.996;8.238;2023-11-19T11:29:33;6.03;;;1.30;;
12966;SDS011;6548;49.996;8.238;2023-11-19T11:38:12;6.07;;;1.58;;
12966;SDS011;6548;49.996;8.238;2023-11-19T11:40:40;5.15;;;1.67;;
12966;SDS011;6548;49.996;8.238;2023-11-19T11:43:39;5.63;;;1.98;;
12966;SDS011;6548;49.996;8.238;2023-11-19T11:48:59;7.40;;;1.42;;
12966;SDS011;6548;49.996;8.238;2023-11-19T11:54:10;4.65;;;1.52;;
12966;SDS011;6548;49.996;8.238;2023-11-19T11:57:03;4.65;;;1.48;;
12966;SDS011;6548;49.996;8.238;2023-11-19T12:02:18;8.57;;;1.77;;
12966;SDS011;6548;49.996;8.238;2023-11-19T12:04:47;7.13;;;1.50;;
12966;SDS011;6548;49.996;8.238;2023-11-19T12:07:16;6.45;;;1.35;;
12966;SDS011;6548;49.996;8.238;2023-11-19T12:10:09;7.32;;;1.63;;
12966;SDS011;6548;49.996;8.238;2023-11-19T12:12:37;4.03;;;1.38;;
12966;SDS011;6548;49.996;8.238;2023-11-19T12:15:06;5.10;;;1.83;;
12966;SDS011;6548;49.996;8.238;2023-11-19T12:18:09;10.45;;;2.15;;
12966;SDS011;6548;49.996;8.238;2023-11-19T12:20:28;7.22;;;1.63;;
12966;SDS011;6548;49.996;8.238;2023-11-19T12:23:00;5.22;;;1.30;;
12966;SDS011;6548;49.996;8.238;2023-11-19T12:25:30;7.00;;;1.55;;
12966;SDS011;6548;49.996;8.238;2023-11-19T12:28:00;3.67;;;1.58;;
12966;SDS011;6548;49.996;8.238;2023-11-19T12:30:29;5.25;;;1.60;;
12966;SDS011;6548;49.996;8.238;2023-11-19T12:32:55;5.75;;;1.73;;
12966;SDS011;6548;49.996;8.238;2023-11-19T12:35:21;4.22;;;1.83;;
12966;SDS011;6548;49.996;8.238;2023-11-19T12:37:48;8.50;;;2.45;;
12966;SDS011;6548;49.996;8.238;2023-11-19T12:40:19;6.72;;;1.58;;
12966;SDS011;6548;49.996;8.238;2023-11-19T12:42:50;5.57;;;2.08;;
12966;SDS011;6548;49.996;8.238;2023-11-19T12:45:17;5.93;;;1.58;;
12966;SDS011;6548;49.996;8.238;2023-11-19T12:47:45;7.50;;;1.30;;
12966;SDS011;6548;49.996;8.238;2023-11-19T12:50:15;5.80;;;1.45;;
12966;SDS011;6548;49.996;8.238;2023-11-19T12:52:43;7.57;;;1.83;;
12966;SDS011;6548;49.996;8.238;2023-11-19T12:55:38;10.57;;;2.72;;
12966;SDS011;6548;49.996;8.238;2023-11-19T12:58:03;9.63;;;1.90;;
12966;SDS011;6548;49.996;8.238;2023-11-19T13:00:30;5.78;;;1.50;;
12966;SDS011;6548;49.996;8.238;2023-11-19T13:02:56;4.80;;;1.35;;
12966;SDS011;6548;49.996;8.238;2023-11-19T13:05:31;9.57;;;2.30;;
12966;SDS011;6548;49.996;8.238;2023-11-19T13:08:02;5.60;;;1.30;;
12966;SDS011;6548;49.996;8.238;2023-11-19T13:10:33;6.20;;;1.40;;
12966;SDS011;6548;49.996;8.238;2023-11-19T13:13:14;6.40;;;1.42;;
12966;SDS011;6548;49.996;8.238;2023-11-19T13:15:40;5.72;;;1.30;;
12966;SDS011;6548;49.996;8.238;2023-11-19T13:18:06;9.38;;;1.42;;
12966;SDS011;6548;49.996;8.238;2023-11-19T13:20:32;5.90;;;1.92;;
12966;SDS011;6548;49.996;8.238;2023-11-19T13:22:58;5.18;;;1.92;;
12966;SDS011;6548;49.996;8.238;2023-11-19T13:25:26;6.22;;;1.60;;
12966;SDS011;6548;49.996;8.238;2023-11-19T13:27:52;4.93;;;1.60;;
12966;SDS011;6548;49.996;8.238;2023-11-19T13:30:19;6.15;;;1.80;;
12966;SDS011;6548;49.996;8.238;2023-11-19T13:32:45;5.38;;;1.33;;
12966;SDS011;6548;49.996;8.238;2023-11-19T13:35:11;6.28;;;1.35;;
12966;SDS011;6548;49.996;8.238;2023-11-19T13:37:38;6.18;;;1.33;;
12966;SDS011;6548;49.996;8.238;2023-11-19T13:40:04;7.55;;;1.92;;
12966;SDS011;6548;49.996;8.238;2023-11-19T13:42:31;8.60;;;2.15;;
12966;SDS011;6548;49.996;8.238;2023-11-19T13:44:57;7.28;;;2.03;;
12966;SDS011;6548;49.996;8.238;2023-11-19T13:47:22;8.05;;;2.03;;
12966;SDS011;6548;49.996;8.238;2023-11-19T13:49:48;7.68;;;2.13;;
12966;SDS011;6548;49.996;8.238;2023-11-19T13:52:15;4.45;;;1.10;;
12966;SDS011;6548;49.996;8.238;2023-11-19T13:54:40;4.63;;;1.20;;
12966;SDS011;6548;49.996;8.238;2023-11-19T13:57:06;7.88;;;2.42;;
12966;SDS011;6548;49.996;8.238;2023-11-19T13:59:32;6.30;;;1.70;;
12966;SDS011;6548;49.996;8.238;2023-11-19T14:01:57;8.07;;;1.85;;
12966;SDS011;6548;49.996;8.238;2023-11-19T14:04:23;7.68;;;2.80;;
12966;SDS011;6548;49.996;8.238;2023-11-19T14:06:49;8.45;;;1.73;;
12966;SDS011;6548;49.996;8.238;2023-11-19T14:09:15;6.85;;;2.03;;
12966;SDS011;6548;49.996;8.238;2023-11-19T14:11:41;12.10;;;2.33;;
12966;SDS011;6548;49.996;8.238;2023-11-19T14:14:07;7.60;;;1.58;;
12966;SDS011;6548;49.996;8.238;2023-11-19T14:16:33;7.90;;;2.00;;
12966;SDS011;6548;49.996;8.238;2023-11-19T14:18:59;8.10;;;1.73;;
12966;SDS011;6548;49.996;8.238;2023-11-19T14:21:25;7.60;;;1.77;;
12966;SDS011;6548;49.996;8.238;2023-11-19T14:23:51;18.23;;;2.47;;
12966;SDS011;6548;49.996;8.238;2023-11-19T14:26:17;8.40;;;2.47;;
12966;SDS011;6548;49.996;8.238;2023-11-19T14:28:43;9.52;;;1.83;;
12966;SDS011;6548;49.996;8.238;2023-11-19T14:31:09;7.30;;;1.90;;
12966;SDS011;6548;49.996;8.238;2023-11-19T14:33:34;8.30;;;1.80;;
12966;SDS011;6548;49.996;8.238;2023-11-19T14:36:01;8.90;;;1.80;;
12966;SDS011;6548;49.996;8.238;2023-11-19T14:38:27;7.60;;;1.63;;
12966;SDS011;6548;49.996;8.238;2023-11-19T14:40:53;10.32;;;1.95;;
12966;SDS011;6548;49.996;8.238;2023-11-19T14:43:19;5.68;;;1.40;;
12966;SDS011;6548;49.996;8.238;2023-11-19T14:45:45;6.85;;;1.65;;
12966;SDS011;6548;49.996;8.238;2023-11-19T14:48:11;8.90;;;2.00;;
12966;SDS011;6548;49.996;8.238;2023-11-19T14:50:36;6.30;;;1.67;;
12966;SDS011;6548;49.996;8.238;2023-11-19T14:53:02;5.40;;;2.13;;
12966;SDS011;6548;49.996;8.238;2023-11-19T14:55:28;4.47;;;1.60;;
12966;SDS011;6548;49.996;8.238;2023-11-19T14:57:54;13.43;;;4.63;;
12966;SDS011;6548;49.996;8.238;2023-11-19T15:00:21;7.90;;;1.80;;
12966;SDS011;6548;49.996;8.238;2023-11-19T15:02:46;11.23;;;2.47;;
12966;SDS011;6548;49.996;8.238;2023-11-19T15:05:12;7.00;;;1.80;;
12966;SDS011;6548;49.996;8.238;2023-11-19T15:07:38;5.22;;;1.65;;
12966;SDS011;6548;49.996;8.238;2023-11-19T15:10:05;10.50;;;1.50;;
12966;SDS011;6548;49.996;8.238;2023-11-19T15:12:36;14.73;;;1.83;;
12966;SDS011;6548;49.996;8.238;2023-11-19T15:15:05;7.55;;;1.58;;
12966;SDS011;6548;49.996;8.238;2023-11-19T15:17:31;7.25;;;1.58;;
12966;SDS011;6548;49.996;8.238;2023-11-19T15:19:57;6.50;;;1.98;;
12966;SDS011;6548;49.996;8.238;2023-11-19T15:22:23;4.18;;;1.75;;